Hermosillo, México

6:01 PM MDT en Septiembre 20, 2014 (GMT -0600)
Gen Ignacio Pesqueira Garcia | Change Station
CLOSE
Current Station
Aeropuerto
Location: Hermosillo,
Altura: 627 ft
Estaciones meteorológicas cercanas

Alt 627 ft 29.09 °N, 111.05 °W | Updated 20 minutes ago

Scattered Clouds
Nubes dispersas
95 ° F
Sensación térmica 101 ° F
N
6
Viento Variable Viento desde SO

Hoy
Alta -- | Baja -- ° F
--% Posibilidad de precipitaciones
Ayer
Alta -- | Baja -- ° F
Precip. -- pul
7:11 AM 7:23 PM
Creciente menguante, 10% visible
Presión 29.78 pul
Visibilidad 12.0 Millas
Nubes Baja 3500 ft
Nubes dispersas 20000 ft
Índice de calor 101 ° F
Punto de rocío 70 ° F
Humedad 44%
Precipitaciones 0.00 pul
Espesor de la nieve No disponible.
UV 1 de una escala de 12
Polen No disponible.
Calidad del aire No disponible.
Flu Activity No disponible.
METAR MMHO 202341Z 23005KT 12SM FEW035 SCT200 35/21 A2980 RMK SLP084 56003 913 8/104

More Conditions Fewer Conditions

Presión 29.78 pul
Visibilidad 12.0 Millas
Nubes Baja 3500 ft
Nubes dispersas 20000 ft
Índice de calor 101 ° F
Punto de rocío 70 ° F
Humedad 44%
Precipitaciones 0.00 pul
Espesor de la nieve No disponible.
UV 1 de una escala de 12
Polen No disponible.
Calidad del aire No disponible.
Flu Activity No disponible.
METAR MMHO 202341Z 23005KT 12SM FEW035 SCT200 35/21 A2980 RMK SLP084 56003 913 8/104

More Conditions Fewer Conditions

10-Day Weather Forecast

Almanac

Astronomía

Sep. 20, 2014 Salida Puesta
Hora real 7:11 AM MDT 7:23 PM MDT
Crepúsculo civil 6:47 AM MDT 7:46 PM MDT
Crepúsculo náutico 6:20 AM MDT 8:14 PM MDT
Crepúsculo astronómico 5:52 AM MDT 8:42 PM MDT
Luna 4:06 AM MDT (9/20) 5:18 PM MDT (9/20)
Horas de luz 12h 58m
Horas de luz
12h 11m
Tomorrow will be 1m 44s shorter.
Creciente menguante, 10% of the Moon is Illuminated
Hoy
Creciente menguante
Sep 24
Nueva
Oct 1
Cuarto creciente
Oct 8
Luna llena
Oct 15
Cuarto menguante

Extremos de hoy

Máximos del país Bajas del país

Community

WunderPhotos

Upload Photos

1,754,982 ¡fotos cargadas!

WunderBlogs® & News

Nearby

Calidad del aire

Not available.

Grosos de nieve

Not available.

Actividad de terremotos

Ciudad Distance Mag. Tiempo y dato
No hay informes recientes de la actividad sísmica.
Magnitud mínima muestra es 2,5.

Temperaturas de aguas costeras

Lugar Temperatura
Sin partes meteorológicos de las estaciones

Estaciones meteorológicas cercanas